sensor_id;sensor_type;location;lat;lon;timestamp;pressure;altitude;pressure_sealevel;temperature;humidity
68301;BME280;55146;47.468;18.806;2023-04-01T00:00:18;98669.25;;;10.69;87.48
68301;BME280;55146;47.468;18.806;2023-04-01T00:02:43;98668.78;;;10.67;87.72
68301;BME280;55146;47.468;18.806;2023-04-01T00:05:09;98681.50;;;10.63;87.90
68301;BME280;55146;47.468;18.806;2023-04-01T00:07:36;98675.00;;;10.59;87.90
68301;BME280;55146;47.468;18.806;2023-04-01T00:10:03;98674.84;;;10.41;88.34
68301;BME280;55146;47.468;18.806;2023-04-01T00:12:28;98678.72;;;10.40;88.46
68301;BME280;55146;47.468;18.806;2023-04-01T00:14:53;98675.44;;;10.38;88.73
68301;BME280;55146;47.468;18.806;2023-04-01T00:17:19;98681.28;;;10.37;88.91
68301;BME280;55146;47.468;18.806;2023-04-01T00:19:45;98678.53;;;10.23;89.78
68301;BME280;55146;47.468;18.806;2023-04-01T00:22:10;98669.84;;;10.16;90.33
68301;BME280;55146;47.468;18.806;2023-04-01T00:24:37;98659.72;;;10.17;90.49
68301;BME280;55146;47.468;18.806;2023-04-01T00:27:03;98669.03;;;10.15;90.56
68301;BME280;55146;47.468;18.806;2023-04-01T00:29:28;98667.03;;;10.21;90.38
68301;BME280;55146;47.468;18.806;2023-04-01T00:31:56;98664.69;;;10.28;90.14
68301;BME280;55146;47.468;18.806;2023-04-01T00:34:22;98662.53;;;10.11;91.21
68301;BME280;55146;47.468;18.806;2023-04-01T00:36:47;98670.06;;;10.06;91.12
68301;BME280;55146;47.468;18.806;2023-04-01T00:39:12;98656.97;;;10.17;91.11
68301;BME280;55146;47.468;18.806;2023-04-01T00:41:38;98669.19;;;10.24;90.82
68301;BME280;55146;47.468;18.806;2023-04-01T00:44:27;98666.44;;;10.24;90.33
68301;BME280;55146;47.468;18.806;2023-04-01T00:46:53;98661.13;;;10.28;90.28
68301;BME280;55146;47.468;18.806;2023-04-01T00:49:20;98656.44;;;10.28;89.81
68301;BME280;55146;47.468;18.806;2023-04-01T00:51:50;98662.53;;;10.25;89.57
68301;BME280;55146;47.468;18.806;2023-04-01T00:54:19;98669.56;;;10.31;89.83
68301;BME280;55146;47.468;18.806;2023-04-01T00:56:50;98667.31;;;10.33;90.09
68301;BME280;55146;47.468;18.806;2023-04-01T00:59:26;98665.38;;;10.34;90.08
68301;BME280;55146;47.468;18.806;2023-04-01T01:01:52;98668.94;;;10.34;89.81
68301;BME280;55146;47.468;18.806;2023-04-01T01:04:38;98669.13;;;10.38;89.67
68301;BME280;55146;47.468;18.806;2023-04-01T01:15:22;98667.22;;;10.25;89.27
68301;BME280;55146;47.468;18.806;2023-04-01T01:20:48;98658.87;;;10.30;88.93
68301;BME280;55146;47.468;18.806;2023-04-01T01:27:12;98660.81;;;10.29;88.96
68301;BME280;55146;47.468;18.806;2023-04-01T01:35:19;98664.16;;;10.26;88.95
68301;BME280;55146;47.468;18.806;2023-04-01T01:37:46;98666.44;;;10.24;88.89
68301;BME280;55146;47.468;18.806;2023-04-01T01:40:15;98667.09;;;10.16;89.36
68301;BME280;55146;47.468;18.806;2023-04-01T01:42:45;98663.34;;;10.12;89.55
68301;BME280;55146;47.468;18.806;2023-04-01T01:45:13;98650.72;;;10.11;89.75
68301;BME280;55146;47.468;18.806;2023-04-01T01:47:40;98653.06;;;10.04;90.21
68301;BME280;55146;47.468;18.806;2023-04-01T01:50:07;98660.37;;;10.08;90.12
68301;BME280;55146;47.468;18.806;2023-04-01T01:52:34;98662.44;;;10.03;90.17
68301;BME280;55146;47.468;18.806;2023-04-01T01:55:00;98652.37;;;9.98;90.35
68301;BME280;55146;47.468;18.806;2023-04-01T01:57:33;98650.72;;;9.84;91.26
68301;BME280;55146;47.468;18.806;2023-04-01T02:00:03;98651.25;;;9.86;91.30
68301;BME280;55146;47.468;18.806;2023-04-01T02:02:40;98650.84;;;9.79;91.81
68301;BME280;55146;47.468;18.806;2023-04-01T02:05:10;98646.06;;;9.84;91.67
68301;BME280;55146;47.468;18.806;2023-04-01T02:07:42;98648.22;;;9.87;91.15
68301;BME280;55146;47.468;18.806;2023-04-01T02:10:10;98639.44;;;9.85;91.13
68301;BME280;55146;47.468;18.806;2023-04-01T02:12:37;98649.00;;;9.74;91.82
68301;BME280;55146;47.468;18.806;2023-04-01T02:15:08;98637.63;;;9.67;92.32
68301;BME280;55146;47.468;18.806;2023-04-01T02:17:39;98642.72;;;9.73;92.22
68301;BME280;55146;47.468;18.806;2023-04-01T02:20:09;98634.66;;;9.77;92.00
68301;BME280;55146;47.468;18.806;2023-04-01T02:22:41;98632.44;;;9.79;91.75
68301;BME280;55146;47.468;18.806;2023-04-01T02:25:12;98632.31;;;9.84;91.45
68301;BME280;55146;47.468;18.806;2023-04-01T02:27:39;98636.06;;;9.88;90.88
68301;BME280;55146;47.468;18.806;2023-04-01T02:30:06;98628.66;;;9.89;90.57
68301;BME280;55146;47.468;18.806;2023-04-01T02:32:33;98622.16;;;9.85;90.37
68301;BME280;55146;47.468;18.806;2023-04-01T02:35:04;98625.81;;;9.80;90.17
68301;BME280;55146;47.468;18.806;2023-04-01T02:37:31;98622.25;;;9.80;89.92
68301;BME280;55146;47.468;18.806;2023-04-01T02:40:01;98618.47;;;9.75;89.82
68301;BME280;55146;47.468;18.806;2023-04-01T02:42:28;98615.53;;;9.72;89.72
68301;BME280;55146;47.468;18.806;2023-04-01T02:44:53;98616.66;;;9.71;89.21
68301;BME280;55146;47.468;18.806;2023-04-01T02:47:19;98619.41;;;9.71;89.07
68301;BME280;55146;47.468;18.806;2023-04-01T02:49:44;98623.88;;;9.67;88.93
68301;BME280;55146;47.468;18.806;2023-04-01T02:52:09;98625.31;;;9.64;89.17
68301;BME280;55146;47.468;18.806;2023-04-01T02:54:35;98627.56;;;9.62;89.28
68301;BME280;55146;47.468;18.806;2023-04-01T02:57:00;98616.56;;;9.62;89.37
68301;BME280;55146;47.468;18.806;2023-04-01T02:59:25;98625.59;;;9.63;89.27
68301;BME280;55146;47.468;18.806;2023-04-01T03:01:51;98620.72;;;9.60;89.31
68301;BME280;55146;47.468;18.806;2023-04-01T03:04:16;98628.97;;;9.60;89.68
68301;BME280;55146;47.468;18.806;2023-04-01T03:06:41;98626.50;;;9.58;89.80
68301;BME280;55146;47.468;18.806;2023-04-01T03:09:07;98627.03;;;9.60;89.94
68301;BME280;55146;47.468;18.806;2023-04-01T03:11:32;98626.03;;;9.56;89.94
68301;BME280;55146;47.468;18.806;2023-04-01T03:13:58;98618.09;;;9.55;89.87
68301;BME280;55146;47.468;18.806;2023-04-01T03:16:23;98624.50;;;9.50;89.90
68301;BME280;55146;47.468;18.806;2023-04-01T03:18:48;98634.84;;;9.53;89.60
68301;BME280;55146;47.468;18.806;2023-04-01T03:21:23;98632.72;;;9.50;89.24
68301;BME280;55146;47.468;18.806;2023-04-01T03:23:49;98639.09;;;9.46;89.19
68301;BME280;55146;47.468;18.806;2023-04-01T03:26:14;98641.03;;;9.45;89.26
68301;BME280;55146;47.468;18.806;2023-04-01T03:28:40;98641.03;;;9.45;88.97
68301;BME280;55146;47.468;18.806;2023-04-01T03:31:06;98639.72;;;9.43;88.71
68301;BME280;55146;47.468;18.806;2023-04-01T03:33:32;98631.06;;;9.36;88.73
68301;BME280;55146;47.468;18.806;2023-04-01T03:35:57;98643.47;;;9.33;88.72
68301;BME280;55146;47.468;18.806;2023-04-01T03:38:23;98644.87;;;9.30;88.62
68301;BME280;55146;47.468;18.806;2023-04-01T03:40:48;98651.59;;;9.24;88.86
68301;BME280;55146;47.468;18.806;2023-04-01T03:43:13;98645.06;;;9.20;88.90
68301;BME280;55146;47.468;18.806;2023-04-01T03:45:47;98655.53;;;9.18;88.90
68301;BME280;55146;47.468;18.806;2023-04-01T03:48:13;98649.63;;;9.11;89.23
68301;BME280;55146;47.468;18.806;2023-04-01T03:50:39;98649.31;;;9.13;89.23
68301;BME280;55146;47.468;18.806;2023-04-01T03:53:04;98658.38;;;9.13;88.97
68301;BME280;55146;47.468;18.806;2023-04-01T03:55:29;98656.22;;;9.10;88.89
68301;BME280;55146;47.468;18.806;2023-04-01T03:57:55;98664.25;;;9.07;89.06
68301;BME280;55146;47.468;18.806;2023-04-01T04:00:20;98667.28;;;9.05;88.58
68301;BME280;55146;47.468;18.806;2023-04-01T04:02:45;98670.31;;;9.04;88.51
68301;BME280;55146;47.468;18.806;2023-04-01T04:05:11;98665.44;;;9.01;88.46
68301;BME280;55146;47.468;18.806;2023-04-01T04:07:36;98666.00;;;8.98;88.39
68301;BME280;55146;47.468;18.806;2023-04-01T04:10:02;98663.28;;;8.98;88.67
68301;BME280;55146;47.468;18.806;2023-04-01T04:12:28;98663.28;;;8.98;88.27
68301;BME280;55146;47.468;18.806;2023-04-01T04:14:53;98662.03;;;8.90;88.33
68301;BME280;55146;47.468;18.806;2023-04-01T04:17:18;98659.59;;;8.88;88.55
68301;BME280;55146;47.468;18.806;2023-04-01T04:19:44;98671.97;;;8.86;89.03
68301;BME280;55146;47.468;18.806;2023-04-01T04:22:09;98675.53;;;8.86;88.95
68301;BME280;55146;47.468;18.806;2023-04-01T04:24:35;98673.38;;;8.83;88.92
68301;BME280;55146;47.468;18.806;2023-04-01T04:27:01;98663.22;;;8.84;88.86
68301;BME280;55146;47.468;18.806;2023-04-01T04:29:26;98673.59;;;8.87;88.59
68301;BME280;55146;47.468;18.806;2023-04-01T04:31:52;98675.44;;;8.91;88.54
68301;BME280;55146;47.468;18.806;2023-04-01T04:34:18;98669.31;;;8.81;88.78
68301;BME280;55146;47.468;18.806;2023-04-01T04:36:43;98677.53;;;8.81;88.73
68301;BME280;55146;47.468;18.806;2023-04-01T04:39:09;98668.69;;;8.84;88.50
68301;BME280;55146;47.468;18.806;2023-04-01T04:41:37;98666.78;;;8.84;88.34
68301;BME280;55146;47.468;18.806;2023-04-01T04:44:03;98658.06;;;8.82;88.45
68301;BME280;55146;47.468;18.806;2023-04-01T04:46:28;98665.97;;;8.84;88.36
68301;BME280;55146;47.468;18.806;2023-04-01T04:48:53;98664.63;;;8.81;88.62
68301;BME280;55146;47.468;18.806;2023-04-01T04:51:20;98668.19;;;8.82;88.64
68301;BME280;55146;47.468;18.806;2023-04-01T04:53:46;98675.59;;;8.81;88.63
68301;BME280;55146;47.468;18.806;2023-04-01T04:56:12;98673.16;;;8.80;88.65
68301;BME280;55146;47.468;18.806;2023-04-01T04:58:38;98672.53;;;8.83;88.79
68301;BME280;55146;47.468;18.806;2023-04-01T05:01:09;98676.34;;;8.87;88.77
68301;BME280;55146;47.468;18.806;2023-04-01T05:03:36;98678.72;;;8.93;88.83
68301;BME280;55146;47.468;18.806;2023-04-01T05:06:02;98679.16;;;9.01;88.81
68301;BME280;55146;47.468;18.806;2023-04-01T05:08:27;98670.53;;;9.07;89.04
68301;BME280;55146;47.468;18.806;2023-04-01T05:10:52;98668.28;;;9.09;89.77
68301;BME280;55146;47.468;18.806;2023-04-01T05:13:18;98667.63;;;9.17;89.78
68301;BME280;55146;47.468;18.806;2023-04-01T05:15:43;98665.94;;;9.03;92.67
68301;BME280;55146;47.468;18.806;2023-04-01T05:18:08;98669.34;;;9.13;92.50
68301;BME280;55146;47.468;18.806;2023-04-01T05:20:34;98670.06;;;9.19;92.45
68301;BME280;55146;47.468;18.806;2023-04-01T05:22:59;98675.22;;;9.20;92.89
68301;BME280;55146;47.468;18.806;2023-04-01T05:25:25;98671.81;;;9.28;92.48
68301;BME280;55146;47.468;18.806;2023-04-01T05:27:51;98680.56;;;9.30;92.38
68301;BME280;55146;47.468;18.806;2023-04-01T05:30:16;98681.28;;;9.36;92.55
68301;BME280;55146;47.468;18.806;2023-04-01T05:32:42;98680.19;;;9.37;93.19
68301;BME280;55146;47.468;18.806;2023-04-01T05:35:09;98682.00;;;9.42;93.33
68301;BME280;55146;47.468;18.806;2023-04-01T05:37:35;98680.81;;;9.48;93.14
68301;BME280;55146;47.468;18.806;2023-04-01T05:40:01;98682.13;;;9.50;92.92
68301;BME280;55146;47.468;18.806;2023-04-01T05:42:27;98683.16;;;9.54;93.14
68301;BME280;55146;47.468;18.806;2023-04-01T05:44:52;98687.44;;;9.60;92.83
68301;BME280;55146;47.468;18.806;2023-04-01T05:47:18;98687.53;;;9.69;92.78
68301;BME280;55146;47.468;18.806;2023-04-01T05:49:43;98688.75;;;9.77;92.33
68301;BME280;55146;47.468;18.806;2023-04-01T05:52:08;98684.22;;;9.86;91.98
68301;BME280;55146;47.468;18.806;2023-04-01T05:54:34;98687.38;;;9.93;92.31
68301;BME280;55146;47.468;18.806;2023-04-01T05:56:59;98685.81;;;10.00;92.50
68301;BME280;55146;47.468;18.806;2023-04-01T05:59:25;98684.13;;;10.04;92.21
68301;BME280;55146;47.468;18.806;2023-04-01T06:01:50;98688.28;;;10.15;91.79
68301;BME280;55146;47.468;18.806;2023-04-01T06:04:17;98686.25;;;10.21;90.68
68301;BME280;55146;47.468;18.806;2023-04-01T06:06:43;98690.22;;;10.29;89.90
68301;BME280;55146;47.468;18.806;2023-04-01T06:09:16;98682.00;;;10.29;90.67
68301;BME280;55146;47.468;18.806;2023-04-01T06:15:03;98674.22;;;10.31;91.71
68301;BME280;55146;47.468;18.806;2023-04-01T06:26:39;98677.09;;;10.75;88.15
68301;BME280;55146;47.468;18.806;2023-04-01T06:39:55;98682.94;;;11.18;85.85
68301;BME280;55146;47.468;18.806;2023-04-01T06:45:40;98689.06;;;11.38;82.98
68301;BME280;55146;47.468;18.806;2023-04-01T06:51:07;98691.28;;;11.80;79.76
68301;BME280;55146;47.468;18.806;2023-04-01T06:53:47;98685.84;;;11.97;78.83
68301;BME280;55146;47.468;18.806;2023-04-01T06:56:17;98689.34;;;12.20;82.44
68301;BME280;55146;47.468;18.806;2023-04-01T06:58:51;98690.19;;;12.38;77.12
68301;BME280;55146;47.468;18.806;2023-04-01T07:01:40;98690.25;;;12.64;76.75
68301;BME280;55146;47.468;18.806;2023-04-01T07:04:16;98689.31;;;12.94;77.69
68301;BME280;55146;47.468;18.806;2023-04-01T07:06:54;98690.63;;;13.31;79.46
68301;BME280;55146;47.468;18.806;2023-04-01T07:09:41;98688.44;;;13.62;78.20
68301;BME280;55146;47.468;18.806;2023-04-01T07:14:58;98680.16;;;14.09;75.99
68301;BME280;55146;47.468;18.806;2023-04-01T07:17:33;98684.22;;;14.11;77.29
68301;BME280;55146;47.468;18.806;2023-04-01T07:22:33;98684.19;;;13.73;72.54
68301;BME280;55146;47.468;18.806;2023-04-01T07:25:12;98687.56;;;13.88;73.82
68301;BME280;55146;47.468;18.806;2023-04-01T07:27:38;98687.06;;;13.86;76.59
68301;BME280;55146;47.468;18.806;2023-04-01T07:30:13;98679.91;;;13.85;75.04
68301;BME280;55146;47.468;18.806;2023-04-01T07:35:34;98679.53;;;13.40;72.86
68301;BME280;55146;47.468;18.806;2023-04-01T07:41:10;98676.50;;;13.24;71.91
68301;BME280;55146;47.468;18.806;2023-04-01T07:49:22;98680.19;;;13.11;70.55
68301;BME280;55146;47.468;18.806;2023-04-01T07:52:10;98688.47;;;13.11;70.73
68301;BME280;55146;47.468;18.806;2023-04-01T07:54:45;98686.22;;;13.04;70.46
68301;BME280;55146;47.468;18.806;2023-04-01T07:57:25;98684.44;;;13.08;71.71
68301;BME280;55146;47.468;18.806;2023-04-01T08:00:07;98684.94;;;13.02;71.30
68301;BME280;55146;47.468;18.806;2023-04-01T08:05:22;98684.59;;;13.03;73.08
68301;BME280;55146;47.468;18.806;2023-04-01T08:08:21;98690.28;;;13.07;71.60
68301;BME280;55146;47.468;18.806;2023-04-01T08:21:38;98697.72;;;12.80;72.53
68301;BME280;55146;47.468;18.806;2023-04-01T08:24:17;98704.56;;;12.83;72.19
68301;BME280;55146;47.468;18.806;2023-04-01T08:26:48;98705.37;;;12.83;71.87
68301;BME280;55146;47.468;18.806;2023-04-01T08:29:19;98702.78;;;13.04;71.72
68301;BME280;55146;47.468;18.806;2023-04-01T08:32:06;98700.53;;;13.32;72.02
68301;BME280;55146;47.468;18.806;2023-04-01T08:34:40;98704.06;;;13.41;70.96
68301;BME280;55146;47.468;18.806;2023-04-01T08:37:14;98703.09;;;13.46;69.61
68301;BME280;55146;47.468;18.806;2023-04-01T08:39:50;98698.88;;;13.40;69.35
68301;BME280;55146;47.468;18.806;2023-04-01T08:48:10;98697.87;;;13.53;69.55
68301;BME280;55146;47.468;18.806;2023-04-01T08:53:33;98702.31;;;14.00;69.25
68301;BME280;55146;47.468;18.806;2023-04-01T09:01:36;98693.53;;;14.36;66.94
68301;BME280;55146;47.468;18.806;2023-04-01T09:07:21;98687.88;;;14.83;65.34
68301;BME280;55146;47.468;18.806;2023-04-01T09:10:17;98689.91;;;14.94;65.68
68301;BME280;55146;47.468;18.806;2023-04-01T09:13:08;98684.09;;;15.29;63.52
68301;BME280;55146;47.468;18.806;2023-04-01T09:15:58;98687.84;;;15.45;63.53
68301;BME280;55146;47.468;18.806;2023-04-01T09:21:17;98685.75;;;15.75;63.65
68301;BME280;55146;47.468;18.806;2023-04-01T09:26:31;98690.16;;;15.76;61.43
68301;BME280;55146;47.468;18.806;2023-04-01T09:35:20;98673.38;;;15.39;60.91
68301;BME280;55146;47.468;18.806;2023-04-01T09:49:13;98683.63;;;14.85;62.84
68301;BME280;55146;47.468;18.806;2023-04-01T09:51:52;98684.75;;;14.64;61.91
68301;BME280;55146;47.468;18.806;2023-04-01T09:57:27;98673.06;;;14.58;61.97
68301;BME280;55146;47.468;18.806;2023-04-01T10:22:17;98687.91;;;14.24;62.81
68301;BME280;55146;47.468;18.806;2023-04-01T10:25:29;98697.13;;;14.28;63.08
68301;BME280;55146;47.468;18.806;2023-04-01T10:40:16;98688.19;;;14.81;63.75
68301;BME280;55146;47.468;18.806;2023-04-01T10:56:51;98693.53;;;14.66;62.81
68301;BME280;55146;47.468;18.806;2023-04-01T11:02:30;98697.87;;;14.96;62.33
68301;BME280;55146;47.468;18.806;2023-04-01T11:08:07;98684.22;;;14.70;59.79
68301;BME280;55146;47.468;18.806;2023-04-01T11:19:52;98681.06;;;15.22;59.77
68301;BME280;55146;47.468;18.806;2023-04-01T11:25:18;98676.25;;;15.64;60.36
68301;BME280;55146;47.468;18.806;2023-04-01T11:33:07;98680.19;;;15.63;59.27
68301;BME280;55146;47.468;18.806;2023-04-01T11:35:57;98694.31;;;15.49;57.26
68301;BME280;55146;47.468;18.806;2023-04-01T11:41:37;98687.72;;;15.00;58.88
68301;BME280;55146;47.468;18.806;2023-04-01T11:44:17;98701.78;;;14.95;59.48
68301;BME280;55146;47.468;18.806;2023-04-01T11:50:13;98693.06;;;15.26;59.58
68301;BME280;55146;47.468;18.806;2023-04-01T11:53:00;98702.38;;;15.42;58.97
68301;BME280;55146;47.468;18.806;2023-04-01T12:11:41;98690.47;;;15.74;57.71
68301;BME280;55146;47.468;18.806;2023-04-01T12:19:50;98688.13;;;15.52;57.90
68301;BME280;55146;47.468;18.806;2023-04-01T12:22:24;98688.75;;;15.49;57.55
68301;BME280;55146;47.468;18.806;2023-04-01T12:44:44;98692.88;;;14.69;59.12
68301;BME280;55146;47.468;18.806;2023-04-01T12:50:09;98695.94;;;15.17;60.42
68301;BME280;55146;47.468;18.806;2023-04-01T12:55:44;98696.28;;;15.49;57.69
68301;BME280;55146;47.468;18.806;2023-04-01T13:25:27;98684.72;;;15.47;57.60
68301;BME280;55146;47.468;18.806;2023-04-01T13:28:19;98679.12;;;15.34;55.56
68301;BME280;55146;47.468;18.806;2023-04-01T13:31:16;98678.72;;;15.12;56.52
68301;BME280;55146;47.468;18.806;2023-04-01T13:42:26;98703.06;;;14.09;60.24
68301;BME280;55146;47.468;18.806;2023-04-01T13:45:02;98700.63;;;14.16;59.69
68301;BME280;55146;47.468;18.806;2023-04-01T14:03:32;98718.34;;;13.69;65.58
68301;BME280;55146;47.468;18.806;2023-04-01T14:08:55;98715.91;;;13.76;65.37
68301;BME280;55146;47.468;18.806;2023-04-01T14:28:18;98696.31;;;13.90;65.36
68301;BME280;55146;47.468;18.806;2023-04-01T14:33:47;98686.00;;;14.45;65.44
68301;BME280;55146;47.468;18.806;2023-04-01T14:39:19;98682.41;;;14.95;63.92
68301;BME280;55146;47.468;18.806;2023-04-01T14:50:09;98676.44;;;15.26;61.58
68301;BME280;55146;47.468;18.806;2023-04-01T14:52:40;98675.34;;;15.39;59.51
68301;BME280;55146;47.468;18.806;2023-04-01T14:55:25;98677.06;;;15.44;59.23
68301;BME280;55146;47.468;18.806;2023-04-01T14:58:07;98679.41;;;15.42;59.26
68301;BME280;55146;47.468;18.806;2023-04-01T15:03:30;98680.09;;;15.71;60.47
68301;BME280;55146;47.468;18.806;2023-04-01T15:06:00;98678.03;;;15.81;61.32
68301;BME280;55146;47.468;18.806;2023-04-01T15:14:22;98679.31;;;15.83;55.96
68301;BME280;55146;47.468;18.806;2023-04-01T15:25:57;98684.41;;;15.27;53.35
68301;BME280;55146;47.468;18.806;2023-04-01T15:31:14;98687.72;;;15.42;53.85
68301;BME280;55146;47.468;18.806;2023-04-01T15:34:01;98690.28;;;15.26;54.81
68301;BME280;55146;47.468;18.806;2023-04-01T15:36:44;98697.87;;;15.17;55.08
68301;BME280;55146;47.468;18.806;2023-04-01T15:39:49;98691.88;;;15.15;56.03
68301;BME280;55146;47.468;18.806;2023-04-01T15:48:48;98696.63;;;14.93;55.98
68301;BME280;55146;47.468;18.806;2023-04-01T16:00:46;98701.19;;;14.89;56.70
68301;BME280;55146;47.468;18.806;2023-04-01T16:10:38;98714.91;;;14.86;55.17
68301;BME280;55146;47.468;18.806;2023-04-01T16:13:17;98712.59;;;14.88;55.77
68301;BME280;55146;47.468;18.806;2023-04-01T16:18:39;98718.81;;;14.85;55.91
68301;BME280;55146;47.468;18.806;2023-04-01T16:24:17;98718.19;;;14.79;56.29
68301;BME280;55146;47.468;18.806;2023-04-01T16:26:53;98723.03;;;14.62;55.91
68301;BME280;55146;47.468;18.806;2023-04-01T16:29:36;98722.84;;;14.67;54.86
68301;BME280;55146;47.468;18.806;2023-04-01T16:33:13;98729.56;;;14.57;56.01
68301;BME280;55146;47.468;18.806;2023-04-01T16:38:40;98725.09;;;14.44;57.13
68301;BME280;55146;47.468;18.806;2023-04-01T16:41:17;98732.91;;;14.42;57.87
68301;BME280;55146;47.468;18.806;2023-04-01T16:43:47;98724.59;;;14.42;58.10
68301;BME280;55146;47.468;18.806;2023-04-01T16:54:28;98734.41;;;14.31;59.20
68301;BME280;55146;47.468;18.806;2023-04-01T16:56:56;98740.12;;;14.26;59.45
68301;BME280;55146;47.468;18.806;2023-04-01T17:02:23;98747.50;;;14.13;59.96
68301;BME280;55146;47.468;18.806;2023-04-01T17:05:11;98740.84;;;14.05;59.96
68301;BME280;55146;47.468;18.806;2023-04-01T17:21:09;98753.78;;;13.75;61.08
68301;BME280;55146;47.468;18.806;2023-04-01T17:23:58;98760.13;;;13.67;61.55
68301;BME280;55146;47.468;18.806;2023-04-01T17:29:05;98763.38;;;13.52;61.42
68301;BME280;55146;47.468;18.806;2023-04-01T17:39:47;98773.44;;;13.40;62.16
68301;BME280;55146;47.468;18.806;2023-04-01T17:45:40;98785.03;;;13.33;62.22
68301;BME280;55146;47.468;18.806;2023-04-01T17:51:13;98792.31;;;13.20;63.09
68301;BME280;55146;47.468;18.806;2023-04-01T17:56:41;98795.34;;;13.10;63.35
68301;BME280;55146;47.468;18.806;2023-04-01T18:08:11;98806.19;;;12.81;65.04
68301;BME280;55146;47.468;18.806;2023-04-01T18:13:37;98817.81;;;12.69;65.68
68301;BME280;55146;47.468;18.806;2023-04-01T18:23:55;98837.69;;;12.40;67.57
68301;BME280;55146;47.468;18.806;2023-04-01T18:26:31;98836.66;;;12.36;67.54
68301;BME280;55146;47.468;18.806;2023-04-01T18:37:33;98870.47;;;12.20;66.89
68301;BME280;55146;47.468;18.806;2023-04-01T18:40:20;98866.75;;;12.15;67.14
68301;BME280;55146;47.468;18.806;2023-04-01T18:46:03;98869.56;;;12.02;67.95
68301;BME280;55146;47.468;18.806;2023-04-01T18:51:21;98882.75;;;11.91;68.44
68301;BME280;55146;47.468;18.806;2023-04-01T18:53:59;98881.75;;;11.87;68.80
68301;BME280;55146;47.468;18.806;2023-04-01T18:59:26;98888.66;;;11.76;69.64
68301;BME280;55146;47.468;18.806;2023-04-01T19:21:26;98887.53;;;11.27;70.75
68301;BME280;55146;47.468;18.806;2023-04-01T19:23:57;98884.38;;;11.20;71.00
68301;BME280;55146;47.468;18.806;2023-04-01T19:26:47;98885.63;;;11.14;71.14
68301;BME280;55146;47.468;18.806;2023-04-01T19:37:39;98890.53;;;11.04;71.94
68301;BME280;55146;47.468;18.806;2023-04-01T19:40:41;98895.81;;;11.00;72.28
68301;BME280;55146;47.468;18.806;2023-04-01T19:46:28;98897.34;;;10.92;72.44
68301;BME280;55146;47.468;18.806;2023-04-01T19:49:06;98899.69;;;10.85;72.69
68301;BME280;55146;47.468;18.806;2023-04-01T19:51:50;98904.28;;;10.76;73.09
68301;BME280;55146;47.468;18.806;2023-04-01T20:00:31;98900.38;;;10.50;73.97
68301;BME280;55146;47.468;18.806;2023-04-01T20:02:44;98903.84;;;10.42;74.33
68301;BME280;55146;47.468;18.806;2023-04-01T20:08:07;98908.91;;;10.35;74.76
68301;BME280;55146;47.468;18.806;2023-04-01T20:16:59;98912.56;;;10.30;75.00
68301;BME280;55146;47.468;18.806;2023-04-01T20:19:35;98909.00;;;10.30;75.59
68301;BME280;55146;47.468;18.806;2023-04-01T20:22:08;98915.91;;;10.27;75.64
68301;BME280;55146;47.468;18.806;2023-04-01T20:24:44;98923.63;;;10.25;75.33
68301;BME280;55146;47.468;18.806;2023-04-01T20:38:41;98921.50;;;10.03;75.41
68301;BME280;55146;47.468;18.806;2023-04-01T20:41:02;98926.75;;;10.00;75.64
68301;BME280;55146;47.468;18.806;2023-04-01T20:45:58;98937.34;;;9.93;75.56
68301;BME280;55146;47.468;18.806;2023-04-01T20:49:13;98940.91;;;9.93;75.67
68301;BME280;55146;47.468;18.806;2023-04-01T20:51:53;98944.22;;;9.90;75.62
68301;BME280;55146;47.468;18.806;2023-04-01T21:21:53;98951.72;;;9.66;76.14
68301;BME280;55146;47.468;18.806;2023-04-01T21:24:48;98954.78;;;9.64;76.07
68301;BME280;55146;47.468;18.806;2023-04-01T21:30:23;98959.53;;;9.59;75.85
68301;BME280;55146;47.468;18.806;2023-04-01T21:41:39;98962.56;;;9.57;75.32
68301;BME280;55146;47.468;18.806;2023-04-01T21:44:38;98965.63;;;9.56;75.10
68301;BME280;55146;47.468;18.806;2023-04-01T22:07:00;98979.97;;;9.29;75.28
68301;BME280;55146;47.468;18.806;2023-04-01T22:09:40;98977.28;;;9.24;75.92
68301;BME280;55146;47.468;18.806;2023-04-01T22:12:18;98979.63;;;9.12;76.58
68301;BME280;55146;47.468;18.806;2023-04-01T22:15:11;98972.09;;;8.99;77.40
68301;BME280;55146;47.468;18.806;2023-04-01T22:26:10;98972.44;;;9.16;77.44
68301;BME280;55146;47.468;18.806;2023-04-01T22:28:50;98968.28;;;9.18;76.98
68301;BME280;55146;47.468;18.806;2023-04-01T22:31:27;98966.94;;;9.16;76.77
68301;BME280;55146;47.468;18.806;2023-04-01T22:42:21;98987.31;;;9.10;75.85
68301;BME280;55146;47.468;18.806;2023-04-01T22:47:52;98989.38;;;8.99;75.74
68301;BME280;55146;47.468;18.806;2023-04-01T22:50:25;98995.13;;;8.98;75.94
68301;BME280;55146;47.468;18.806;2023-04-01T22:55:34;99002.87;;;8.90;76.11
68301;BME280;55146;47.468;18.806;2023-04-01T22:58:05;99008.72;;;8.84;76.31
68301;BME280;55146;47.468;18.806;2023-04-01T23:00:37;99022.47;;;8.79;76.44
68301;BME280;55146;47.468;18.806;2023-04-01T23:03:11;99020.03;;;8.77;76.47
68301;BME280;55146;47.468;18.806;2023-04-01T23:05:46;99022.53;;;8.74;76.83
68301;BME280;55146;47.468;18.806;2023-04-01T23:11:08;99024.00;;;8.61;77.47
68301;BME280;55146;47.468;18.806;2023-04-01T23:13:39;99024.87;;;8.57;77.81
68301;BME280;55146;47.468;18.806;2023-04-01T23:16:07;99034.53;;;8.49;78.67
68301;BME280;55146;47.468;18.806;2023-04-01T23:21:34;99039.97;;;8.54;80.90
68301;BME280;55146;47.468;18.806;2023-04-01T23:29:39;99048.50;;;8.81;80.16
68301;BME280;55146;47.468;18.806;2023-04-01T23:32:18;99052.06;;;8.82;80.11
68301;BME280;55146;47.468;18.806;2023-04-01T23:34:50;99061.91;;;8.83;79.77
68301;BME280;55146;47.468;18.806;2023-04-01T23:37:17;99064.19;;;8.76;79.95
68301;BME280;55146;47.468;18.806;2023-04-01T23:39:50;99074.00;;;8.82;79.43
68301;BME280;55146;47.468;18.806;2023-04-01T23:42:25;99066.34;;;8.79;79.92